WLGT2: Salt Fork Red Rvr nr Wellington

Data processed at Wed May 22 2019 23:50


All information presented herein is the property of the government of the United States of America and may be revised or deleted at any time without prior notice.
Dissemination of this information without the expressed written consent of the Public Affairs Office, Tulsa District U.S. Army Corps of Engineers is strictly prohibited.
These data are gathered electronically and, as presented, have not undergone any form of quality control. These data are not guaranteed to be valid or correct.
Go to home page.
Go to station list.
Go to home page.

Upstream stations:

Downstream station:
Previous Day
Next Day
Current Day
    
SHEF ID:       WLGT2     Salt Fk Red Rv nr Wellington, TX
STATION TYPE:  
Regulating: Stage =     6.00, Flow =     1365

               PRECIP     STAGE  RIV-FLOW  BAT-LOAD
                   in        ft       cfs      volt
              Ccp-Rev   Ccp-Rev   Ccp-Rev   Ccp-Rev
(US/Central)
05/22 00:00      0.00      3.60       117     12.49
05/22 01:00      0.00      3.57       112     12.49
05/22 02:00      0.00      3.54       107     12.49
05/22 03:00      0.00      3.51       102     12.49
05/22 04:00      0.00      3.48        97     12.41
05/22 05:00      0.00      3.45        92     12.41
05/22 06:00      0.00      3.42        88     12.41
05/22 07:00      0.00      3.40        85     12.41
05/22 08:00      0.00      3.37        81     12.41
05/22 09:00      0.00      3.35        78     12.49
05/22 10:00      0.00      3.33        75     12.65
05/22 11:00      0.00      3.32        74     12.81
05/22 12:00      0.00      3.30        71     12.81
05/22 13:00      0.00      3.29        70     12.81
05/22 14:00      0.00      3.28        69     12.81
05/22 15:00      0.00      3.26        66     12.81
05/22 16:00      0.00      3.25        65     12.81
05/22 17:00      0.00      3.24        64     12.81
05/22 18:00      0.00      3.23        63     12.81
05/22 19:00      0.00      3.22        62     12.73
05/22 20:00      0.00      3.22        62     12.65
05/22 21:00      0.00      3.21        60     12.57
05/22 22:00      0.00      3.20        59     12.57
05/22 23:00      0.00      3.19        58     12.57